sensor_id;sensor_type;location;lat;lon;timestamp;P1;durP1;ratioP1;P2;durP2;ratioP2
24145;SDS011;12308;50.948;4.706;2023-02-28T00:01:11;25.63;;;14.85;;
24145;SDS011;12308;50.948;4.706;2023-02-28T00:03:38;30.23;;;15.77;;
24145;SDS011;12308;50.948;4.706;2023-02-28T00:06:04;28.92;;;15.77;;
24145;SDS011;12308;50.948;4.706;2023-02-28T00:08:30;29.92;;;15.60;;
24145;SDS011;12308;50.948;4.706;2023-02-28T00:11:00;25.77;;;15.43;;
24145;SDS011;12308;50.948;4.706;2023-02-28T00:13:29;32.70;;;15.25;;
24145;SDS011;12308;50.948;4.706;2023-02-28T00:16:02;24.23;;;14.88;;
24145;SDS011;12308;50.948;4.706;2023-02-28T00:18:30;30.23;;;14.57;;
24145;SDS011;12308;50.948;4.706;2023-02-28T00:20:57;36.75;;;14.68;;
24145;SDS011;12308;50.948;4.706;2023-02-28T00:23:23;32.55;;;15.88;;
24145;SDS011;12308;50.948;4.706;2023-02-28T00:25:49;24.85;;;14.88;;
24145;SDS011;12308;50.948;4.706;2023-02-28T00:28:15;27.63;;;14.15;;
24145;SDS011;12308;50.948;4.706;2023-02-28T00:30:42;28.23;;;14.77;;
24145;SDS011;12308;50.948;4.706;2023-02-28T00:33:08;30.98;;;15.32;;
24145;SDS011;12308;50.948;4.706;2023-02-28T00:35:33;28.83;;;15.27;;
24145;SDS011;12308;50.948;4.706;2023-02-28T00:37:59;25.00;;;14.48;;
24145;SDS011;12308;50.948;4.706;2023-02-28T00:40:25;25.52;;;15.45;;
24145;SDS011;12308;50.948;4.706;2023-02-28T00:42:50;26.20;;;14.65;;
24145;SDS011;12308;50.948;4.706;2023-02-28T00:45:16;29.65;;;15.27;;
24145;SDS011;12308;50.948;4.706;2023-02-28T00:47:42;25.75;;;15.65;;
24145;SDS011;12308;50.948;4.706;2023-02-28T00:50:07;32.45;;;16.30;;
24145;SDS011;12308;50.948;4.706;2023-02-28T00:52:34;31.65;;;15.70;;
24145;SDS011;12308;50.948;4.706;2023-02-28T00:55:00;25.75;;;14.68;;
24145;SDS011;12308;50.948;4.706;2023-02-28T00:57:25;31.95;;;15.48;;
24145;SDS011;12308;50.948;4.706;2023-02-28T00:59:51;25.50;;;15.43;;
24145;SDS011;12308;50.948;4.706;2023-02-28T01:02:19;25.88;;;15.18;;
24145;SDS011;12308;50.948;4.706;2023-02-28T01:04:46;26.67;;;15.65;;
24145;SDS011;12308;50.948;4.706;2023-02-28T01:07:12;28.15;;;15.38;;
24145;SDS011;12308;50.948;4.706;2023-02-28T01:09:38;27.50;;;15.32;;
24145;SDS011;12308;50.948;4.706;2023-02-28T01:12:04;32.95;;;15.43;;
24145;SDS011;12308;50.948;4.706;2023-02-28T01:14:30;32.55;;;15.38;;
24145;SDS011;12308;50.948;4.706;2023-02-28T01:16:56;27.65;;;15.63;;
24145;SDS011;12308;50.948;4.706;2023-02-28T01:19:22;32.33;;;16.25;;
24145;SDS011;12308;50.948;4.706;2023-02-28T01:21:48;30.02;;;16.23;;
24145;SDS011;12308;50.948;4.706;2023-02-28T01:24:13;27.55;;;16.10;;
24145;SDS011;12308;50.948;4.706;2023-02-28T01:26:39;32.35;;;18.13;;
24145;SDS011;12308;50.948;4.706;2023-02-28T01:29:05;38.95;;;17.75;;
24145;SDS011;12308;50.948;4.706;2023-02-28T01:31:30;31.98;;;17.73;;
24145;SDS011;12308;50.948;4.706;2023-02-28T01:33:56;33.00;;;17.42;;
24145;SDS011;12308;50.948;4.706;2023-02-28T01:36:22;34.65;;;17.52;;
24145;SDS011;12308;50.948;4.706;2023-02-28T01:38:49;27.83;;;18.08;;
24145;SDS011;12308;50.948;4.706;2023-02-28T01:41:22;32.17;;;18.23;;
24145;SDS011;12308;50.948;4.706;2023-02-28T01:44:03;30.98;;;17.25;;
24145;SDS011;12308;50.948;4.706;2023-02-28T01:46:31;26.70;;;16.77;;
24145;SDS011;12308;50.948;4.706;2023-02-28T01:54:05;33.10;;;17.15;;
24145;SDS011;12308;50.948;4.706;2023-02-28T01:56:38;31.08;;;17.42;;
24145;SDS011;12308;50.948;4.706;2023-02-28T01:59:08;32.67;;;18.15;;
24145;SDS011;12308;50.948;4.706;2023-02-28T02:01:35;30.08;;;17.05;;
24145;SDS011;12308;50.948;4.706;2023-02-28T02:04:01;34.15;;;17.83;;
24145;SDS011;12308;50.948;4.706;2023-02-28T02:06:29;30.65;;;17.90;;
24145;SDS011;12308;50.948;4.706;2023-02-28T02:09:01;32.47;;;18.13;;
24145;SDS011;12308;50.948;4.706;2023-02-28T02:11:28;35.88;;;17.67;;
24145;SDS011;12308;50.948;4.706;2023-02-28T02:16:42;35.72;;;17.48;;
24145;SDS011;12308;50.948;4.706;2023-02-28T02:21:59;29.80;;;17.35;;
24145;SDS011;12308;50.948;4.706;2023-02-28T02:27:55;32.05;;;17.50;;
24145;SDS011;12308;50.948;4.706;2023-02-28T02:41:00;31.88;;;17.48;;
24145;SDS011;12308;50.948;4.706;2023-02-28T02:47:01;31.80;;;18.25;;
24145;SDS011;12308;50.948;4.706;2023-02-28T02:49:09;36.50;;;18.45;;
24145;SDS011;12308;50.948;4.706;2023-02-28T02:51:57;34.53;;;18.48;;
24145;SDS011;12308;50.948;4.706;2023-02-28T02:54:28;30.92;;;18.63;;
24145;SDS011;12308;50.948;4.706;2023-02-28T02:56:59;34.55;;;18.83;;
24145;SDS011;12308;50.948;4.706;2023-02-28T02:59:30;31.38;;;19.13;;
24145;SDS011;12308;50.948;4.706;2023-02-28T03:01:59;34.53;;;19.58;;
24145;SDS011;12308;50.948;4.706;2023-02-28T03:04:27;34.15;;;19.10;;
24145;SDS011;12308;50.948;4.706;2023-02-28T03:06:58;33.00;;;19.40;;
24145;SDS011;12308;50.948;4.706;2023-02-28T03:09:24;40.05;;;20.35;;
24145;SDS011;12308;50.948;4.706;2023-02-28T03:11:51;31.27;;;18.95;;
24145;SDS011;12308;50.948;4.706;2023-02-28T03:30:27;32.45;;;18.20;;
24145;SDS011;12308;50.948;4.706;2023-02-28T03:33:21;34.55;;;18.50;;
24145;SDS011;12308;50.948;4.706;2023-02-28T03:35:56;31.67;;;18.40;;
24145;SDS011;12308;50.948;4.706;2023-02-28T03:38:43;30.58;;;18.60;;
24145;SDS011;12308;50.948;4.706;2023-02-28T03:43:41;31.35;;;18.35;;
24145;SDS011;12308;50.948;4.706;2023-02-28T03:46:12;32.25;;;18.25;;
24145;SDS011;12308;50.948;4.706;2023-02-28T03:48:40;31.10;;;18.25;;
24145;SDS011;12308;50.948;4.706;2023-02-28T03:51:15;32.20;;;19.42;;
24145;SDS011;12308;50.948;4.706;2023-02-28T03:53:52;30.70;;;18.02;;
24145;SDS011;12308;50.948;4.706;2023-02-28T03:56:29;30.45;;;18.45;;
24145;SDS011;12308;50.948;4.706;2023-02-28T04:02:04;31.90;;;18.10;;
24145;SDS011;12308;50.948;4.706;2023-02-28T04:04:23;31.88;;;18.33;;
24145;SDS011;12308;50.948;4.706;2023-02-28T04:06:52;32.72;;;19.08;;
24145;SDS011;12308;50.948;4.706;2023-02-28T04:09:25;34.40;;;19.25;;
24145;SDS011;12308;50.948;4.706;2023-02-28T04:11:52;35.13;;;19.38;;
24145;SDS011;12308;50.948;4.706;2023-02-28T04:14:20;36.70;;;20.38;;
24145;SDS011;12308;50.948;4.706;2023-02-28T04:16:46;31.05;;;17.92;;
24145;SDS011;12308;50.948;4.706;2023-02-28T04:19:13;39.15;;;20.02;;
24145;SDS011;12308;50.948;4.706;2023-02-28T04:24:06;35.33;;;20.20;;
24145;SDS011;12308;50.948;4.706;2023-02-28T04:26:38;34.15;;;18.90;;
24145;SDS011;12308;50.948;4.706;2023-02-28T04:29:06;40.83;;;20.58;;
24145;SDS011;12308;50.948;4.706;2023-02-28T04:31:32;37.13;;;19.95;;
24145;SDS011;12308;50.948;4.706;2023-02-28T04:33:59;41.95;;;21.80;;
24145;SDS011;12308;50.948;4.706;2023-02-28T04:36:25;36.70;;;20.80;;
24145;SDS011;12308;50.948;4.706;2023-02-28T04:38:51;35.15;;;21.30;;
24145;SDS011;12308;50.948;4.706;2023-02-28T04:41:17;38.72;;;21.50;;
24145;SDS011;12308;50.948;4.706;2023-02-28T04:43:43;40.35;;;21.52;;
24145;SDS011;12308;50.948;4.706;2023-02-28T04:46:08;41.50;;;21.70;;
24145;SDS011;12308;50.948;4.706;2023-02-28T04:48:36;43.25;;;23.90;;
24145;SDS011;12308;50.948;4.706;2023-02-28T04:51:03;40.65;;;23.23;;
24145;SDS011;12308;50.948;4.706;2023-02-28T04:53:34;42.28;;;24.08;;
24145;SDS011;12308;50.948;4.706;2023-02-28T04:56:01;45.80;;;22.77;;
24145;SDS011;12308;50.948;4.706;2023-02-28T04:58:27;36.35;;;21.42;;
24145;SDS011;12308;50.948;4.706;2023-02-28T05:00:53;40.28;;;22.73;;
24145;SDS011;12308;50.948;4.706;2023-02-28T05:03:25;35.67;;;21.80;;
24145;SDS011;12308;50.948;4.706;2023-02-28T05:05:51;41.00;;;22.70;;
24145;SDS011;12308;50.948;4.706;2023-02-28T05:08:16;42.10;;;22.15;;
24145;SDS011;12308;50.948;4.706;2023-02-28T05:10:42;39.85;;;23.55;;
24145;SDS011;12308;50.948;4.706;2023-02-28T05:13:09;44.10;;;23.73;;
24145;SDS011;12308;50.948;4.706;2023-02-28T05:15:38;46.40;;;24.90;;
24145;SDS011;12308;50.948;4.706;2023-02-28T05:18:04;43.72;;;24.40;;
24145;SDS011;12308;50.948;4.706;2023-02-28T05:20:29;47.28;;;25.13;;
24145;SDS011;12308;50.948;4.706;2023-02-28T05:22:55;45.60;;;25.60;;
24145;SDS011;12308;50.948;4.706;2023-02-28T05:25:23;56.40;;;25.08;;
24145;SDS011;12308;50.948;4.706;2023-02-28T05:27:49;48.05;;;25.65;;
24145;SDS011;12308;50.948;4.706;2023-02-28T05:30:15;47.13;;;24.40;;
24145;SDS011;12308;50.948;4.706;2023-02-28T05:32:40;42.83;;;24.50;;
24145;SDS011;12308;50.948;4.706;2023-02-28T05:35:08;47.63;;;25.27;;
24145;SDS011;12308;50.948;4.706;2023-02-28T05:37:37;49.95;;;26.45;;
24145;SDS011;12308;50.948;4.706;2023-02-28T05:40:04;47.25;;;23.60;;
24145;SDS011;12308;50.948;4.706;2023-02-28T05:42:32;41.42;;;22.83;;
24145;SDS011;12308;50.948;4.706;2023-02-28T05:44:58;41.08;;;21.73;;
24145;SDS011;12308;50.948;4.706;2023-02-28T05:47:24;40.17;;;22.48;;
24145;SDS011;12308;50.948;4.706;2023-02-28T05:49:49;39.50;;;21.98;;
24145;SDS011;12308;50.948;4.706;2023-02-28T05:52:15;41.95;;;22.83;;
24145;SDS011;12308;50.948;4.706;2023-02-28T05:54:40;41.70;;;22.00;;
24145;SDS011;12308;50.948;4.706;2023-02-28T05:57:06;39.78;;;21.55;;
24145;SDS011;12308;50.948;4.706;2023-02-28T05:59:32;39.60;;;22.85;;
24145;SDS011;12308;50.948;4.706;2023-02-28T06:01:58;40.25;;;22.42;;
24145;SDS011;12308;50.948;4.706;2023-02-28T06:04:24;43.15;;;21.95;;
24145;SDS011;12308;50.948;4.706;2023-02-28T06:06:49;44.85;;;21.95;;
24145;SDS011;12308;50.948;4.706;2023-02-28T06:09:16;42.08;;;21.42;;
24145;SDS011;12308;50.948;4.706;2023-02-28T06:11:42;35.40;;;20.95;;
24145;SDS011;12308;50.948;4.706;2023-02-28T06:14:12;35.22;;;21.48;;
24145;SDS011;12308;50.948;4.706;2023-02-28T06:16:41;40.65;;;20.52;;
24145;SDS011;12308;50.948;4.706;2023-02-28T06:19:06;36.60;;;20.77;;
24145;SDS011;12308;50.948;4.706;2023-02-28T06:21:33;39.80;;;21.35;;
24145;SDS011;12308;50.948;4.706;2023-02-28T06:23:59;40.17;;;22.13;;
24145;SDS011;12308;50.948;4.706;2023-02-28T06:26:25;40.58;;;23.05;;
24145;SDS011;12308;50.948;4.706;2023-02-28T06:28:50;41.38;;;22.27;;
24145;SDS011;12308;50.948;4.706;2023-02-28T06:31:16;41.58;;;22.92;;
24145;SDS011;12308;50.948;4.706;2023-02-28T06:33:43;38.15;;;22.15;;
24145;SDS011;12308;50.948;4.706;2023-02-28T06:36:10;41.13;;;23.63;;
24145;SDS011;12308;50.948;4.706;2023-02-28T06:38:38;39.28;;;22.15;;
24145;SDS011;12308;50.948;4.706;2023-02-28T06:41:04;45.95;;;23.80;;
24145;SDS011;12308;50.948;4.706;2023-02-28T06:43:31;47.70;;;24.55;;
24145;SDS011;12308;50.948;4.706;2023-02-28T06:46:01;45.00;;;23.70;;
24145;SDS011;12308;50.948;4.706;2023-02-28T06:48:28;40.35;;;23.90;;
24145;SDS011;12308;50.948;4.706;2023-02-28T06:51:04;47.65;;;22.98;;
24145;SDS011;12308;50.948;4.706;2023-02-28T06:53:34;43.67;;;23.60;;
24145;SDS011;12308;50.948;4.706;2023-02-28T06:56:06;46.42;;;24.00;;
24145;SDS011;12308;50.948;4.706;2023-02-28T06:58:33;42.55;;;23.98;;
24145;SDS011;12308;50.948;4.706;2023-02-28T07:00:59;42.80;;;23.73;;
24145;SDS011;12308;50.948;4.706;2023-02-28T07:03:25;42.88;;;24.27;;
24145;SDS011;12308;50.948;4.706;2023-02-28T07:05:50;41.95;;;22.55;;
24145;SDS011;12308;50.948;4.706;2023-02-28T07:08:16;44.38;;;24.25;;
24145;SDS011;12308;50.948;4.706;2023-02-28T07:10:42;42.40;;;22.67;;
24145;SDS011;12308;50.948;4.706;2023-02-28T07:13:08;45.60;;;23.42;;
24145;SDS011;12308;50.948;4.706;2023-02-28T07:15:37;41.92;;;22.08;;
24145;SDS011;12308;50.948;4.706;2023-02-28T07:18:03;53.95;;;24.33;;
24145;SDS011;12308;50.948;4.706;2023-02-28T07:20:29;44.60;;;23.58;;
24145;SDS011;12308;50.948;4.706;2023-02-28T07:22:55;42.38;;;22.42;;
24145;SDS011;12308;50.948;4.706;2023-02-28T07:25:28;44.28;;;24.73;;
24145;SDS011;12308;50.948;4.706;2023-02-28T07:27:54;45.17;;;25.85;;
24145;SDS011;12308;50.948;4.706;2023-02-28T07:30:21;40.70;;;24.30;;
24145;SDS011;12308;50.948;4.706;2023-02-28T07:32:47;40.30;;;22.60;;
24145;SDS011;12308;50.948;4.706;2023-02-28T07:35:13;41.05;;;21.15;;
24145;SDS011;12308;50.948;4.706;2023-02-28T07:37:40;39.65;;;21.55;;
24145;SDS011;12308;50.948;4.706;2023-02-28T07:40:07;41.08;;;22.45;;
24145;SDS011;12308;50.948;4.706;2023-02-28T07:42:36;37.05;;;20.88;;
24145;SDS011;12308;50.948;4.706;2023-02-28T07:45:03;42.90;;;20.75;;
24145;SDS011;12308;50.948;4.706;2023-02-28T07:47:30;42.53;;;21.20;;
24145;SDS011;12308;50.948;4.706;2023-02-28T07:49:56;34.22;;;20.40;;
24145;SDS011;12308;50.948;4.706;2023-02-28T07:52:22;34.03;;;18.92;;
24145;SDS011;12308;50.948;4.706;2023-02-28T07:54:51;36.53;;;19.63;;
24145;SDS011;12308;50.948;4.706;2023-02-28T07:57:17;34.60;;;17.73;;
24145;SDS011;12308;50.948;4.706;2023-02-28T07:59:43;33.08;;;17.65;;
24145;SDS011;12308;50.948;4.706;2023-02-28T08:02:18;33.25;;;18.50;;
24145;SDS011;12308;50.948;4.706;2023-02-28T08:04:44;31.38;;;16.55;;
24145;SDS011;12308;50.948;4.706;2023-02-28T08:07:10;26.15;;;15.75;;
24145;SDS011;12308;50.948;4.706;2023-02-28T08:09:38;30.10;;;15.82;;
24145;SDS011;12308;50.948;4.706;2023-02-28T08:12:04;28.90;;;14.98;;
24145;SDS011;12308;50.948;4.706;2023-02-28T08:14:31;31.13;;;15.20;;
24145;SDS011;12308;50.948;4.706;2023-02-28T08:16:56;24.75;;;14.35;;
24145;SDS011;12308;50.948;4.706;2023-02-28T08:19:22;25.15;;;14.20;;
24145;SDS011;12308;50.948;4.706;2023-02-28T08:21:48;27.25;;;13.90;;
24145;SDS011;12308;50.948;4.706;2023-02-28T08:24:13;28.33;;;13.40;;
24145;SDS011;12308;50.948;4.706;2023-02-28T08:26:39;21.40;;;12.50;;
24145;SDS011;12308;50.948;4.706;2023-02-28T08:29:05;22.52;;;12.45;;
24145;SDS011;12308;50.948;4.706;2023-02-28T08:31:30;21.17;;;11.75;;
24145;SDS011;12308;50.948;4.706;2023-02-28T08:33:56;21.30;;;11.35;;
24145;SDS011;12308;50.948;4.706;2023-02-28T08:36:23;19.33;;;10.50;;
24145;SDS011;12308;50.948;4.706;2023-02-28T08:38:50;24.55;;;11.05;;
24145;SDS011;12308;50.948;4.706;2023-02-28T08:41:16;15.13;;;9.15;;
24145;SDS011;12308;50.948;4.706;2023-02-28T08:43:41;18.50;;;9.30;;
24145;SDS011;12308;50.948;4.706;2023-02-28T08:46:07;17.00;;;9.60;;
24145;SDS011;12308;50.948;4.706;2023-02-28T08:48:36;16.20;;;9.63;;
24145;SDS011;12308;50.948;4.706;2023-02-28T08:51:06;18.02;;;9.43;;
24145;SDS011;12308;50.948;4.706;2023-02-28T08:53:36;14.80;;;8.10;;
24145;SDS011;12308;50.948;4.706;2023-02-28T08:56:06;16.25;;;8.98;;
24145;SDS011;12308;50.948;4.706;2023-02-28T08:58:36;14.95;;;8.13;;
24145;SDS011;12308;50.948;4.706;2023-02-28T09:01:22;14.10;;;9.25;;
24145;SDS011;12308;50.948;4.706;2023-02-28T09:03:52;15.32;;;8.48;;
24145;SDS011;12308;50.948;4.706;2023-02-28T09:06:20;20.70;;;9.10;;
24145;SDS011;12308;50.948;4.706;2023-02-28T09:08:47;15.23;;;8.90;;
24145;SDS011;12308;50.948;4.706;2023-02-28T09:11:13;14.70;;;8.15;;
24145;SDS011;12308;50.948;4.706;2023-02-28T09:13:39;16.33;;;8.35;;
24145;SDS011;12308;50.948;4.706;2023-02-28T09:16:06;17.60;;;8.88;;
24145;SDS011;12308;50.948;4.706;2023-02-28T09:18:34;14.75;;;8.20;;
24145;SDS011;12308;50.948;4.706;2023-02-28T09:21:03;15.98;;;7.53;;
24145;SDS011;12308;50.948;4.706;2023-02-28T09:23:32;14.70;;;8.00;;
24145;SDS011;12308;50.948;4.706;2023-02-28T09:25:58;16.30;;;8.00;;
24145;SDS011;12308;50.948;4.706;2023-02-28T09:28:24;23.30;;;9.02;;
24145;SDS011;12308;50.948;4.706;2023-02-28T09:30:51;16.20;;;7.43;;
24145;SDS011;12308;50.948;4.706;2023-02-28T09:33:19;13.75;;;7.97;;
24145;SDS011;12308;50.948;4.706;2023-02-28T09:35:46;11.70;;;7.38;;
24145;SDS011;12308;50.948;4.706;2023-02-28T09:38:16;13.38;;;6.95;;
24145;SDS011;12308;50.948;4.706;2023-02-28T09:40:50;12.50;;;6.88;;
24145;SDS011;12308;50.948;4.706;2023-02-28T09:43:19;9.38;;;6.13;;
24145;SDS011;12308;50.948;4.706;2023-02-28T09:45:51;10.98;;;7.10;;
24145;SDS011;12308;50.948;4.706;2023-02-28T09:48:27;11.70;;;5.72;;
24145;SDS011;12308;50.948;4.706;2023-02-28T09:53:53;9.25;;;5.63;;
24145;SDS011;12308;50.948;4.706;2023-02-28T09:56:20;10.63;;;4.40;;
24145;SDS011;12308;50.948;4.706;2023-02-28T10:06:48;11.20;;;4.15;;
24145;SDS011;12308;50.948;4.706;2023-02-28T10:09:25;7.60;;;4.03;;
24145;SDS011;12308;50.948;4.706;2023-02-28T10:11:56;6.72;;;4.10;;
24145;SDS011;12308;50.948;4.706;2023-02-28T10:14:28;8.80;;;4.47;;
24145;SDS011;12308;50.948;4.706;2023-02-28T10:16:59;7.80;;;4.32;;
24145;SDS011;12308;50.948;4.706;2023-02-28T10:22:34;6.68;;;4.05;;
24145;SDS011;12308;50.948;4.706;2023-02-28T10:25:23;6.93;;;3.97;;
24145;SDS011;12308;50.948;4.706;2023-02-28T10:27:57;5.28;;;3.92;;
24145;SDS011;12308;50.948;4.706;2023-02-28T10:30:26;5.63;;;4.00;;
24145;SDS011;12308;50.948;4.706;2023-02-28T10:32:52;7.97;;;4.50;;
24145;SDS011;12308;50.948;4.706;2023-02-28T10:37:48;7.63;;;4.43;;
24145;SDS011;12308;50.948;4.706;2023-02-28T10:42:55;8.18;;;4.28;;
24145;SDS011;12308;50.948;4.706;2023-02-28T10:45:20;9.10;;;4.68;;
24145;SDS011;12308;50.948;4.706;2023-02-28T10:55:39;6.55;;;4.38;;
24145;SDS011;12308;50.948;4.706;2023-02-28T10:58:18;7.40;;;3.70;;
24145;SDS011;12308;50.948;4.706;2023-02-28T11:00:47;6.90;;;3.92;;
24145;SDS011;12308;50.948;4.706;2023-02-28T11:03:28;8.93;;;4.03;;
24145;SDS011;12308;50.948;4.706;2023-02-28T11:06:03;7.45;;;4.00;;
24145;SDS011;12308;50.948;4.706;2023-02-28T11:08:31;10.98;;;4.35;;
24145;SDS011;12308;50.948;4.706;2023-02-28T11:10:58;8.65;;;4.32;;
24145;SDS011;12308;50.948;4.706;2023-02-28T11:13:32;8.27;;;4.38;;
24145;SDS011;12308;50.948;4.706;2023-02-28T11:16:00;10.13;;;4.45;;
24145;SDS011;12308;50.948;4.706;2023-02-28T11:18:38;10.43;;;4.57;;
24145;SDS011;12308;50.948;4.706;2023-02-28T11:21:08;10.23;;;4.15;;
24145;SDS011;12308;50.948;4.706;2023-02-28T11:23:40;7.53;;;4.30;;
24145;SDS011;12308;50.948;4.706;2023-02-28T11:26:07;6.43;;;4.70;;
24145;SDS011;12308;50.948;4.706;2023-02-28T11:28:40;11.98;;;4.70;;
24145;SDS011;12308;50.948;4.706;2023-02-28T11:33:54;7.32;;;4.68;;
24145;SDS011;12308;50.948;4.706;2023-02-28T11:38:49;7.35;;;4.30;;
24145;SDS011;12308;50.948;4.706;2023-02-28T11:44:10;10.95;;;4.70;;
24145;SDS011;12308;50.948;4.706;2023-02-28T11:46:49;6.45;;;4.10;;
24145;SDS011;12308;50.948;4.706;2023-02-28T11:49:30;12.40;;;3.95;;
24145;SDS011;12308;50.948;4.706;2023-02-28T11:52:37;7.38;;;3.88;;
24145;SDS011;12308;50.948;4.706;2023-02-28T12:03:30;8.35;;;4.30;;
24145;SDS011;12308;50.948;4.706;2023-02-28T12:12:03;6.95;;;4.07;;
24145;SDS011;12308;50.948;4.706;2023-02-28T12:23:29;5.35;;;3.58;;
24145;SDS011;12308;50.948;4.706;2023-02-28T12:28:12;5.50;;;3.75;;
24145;SDS011;12308;50.948;4.706;2023-02-28T12:30:47;6.38;;;3.95;;
24145;SDS011;12308;50.948;4.706;2023-02-28T12:33:36;9.00;;;4.97;;
24145;SDS011;12308;50.948;4.706;2023-02-28T12:36:11;6.82;;;4.07;;
24145;SDS011;12308;50.948;4.706;2023-02-28T12:38:47;6.63;;;3.67;;
24145;SDS011;12308;50.948;4.706;2023-02-28T12:41:41;5.43;;;3.90;;
24145;SDS011;12308;50.948;4.706;2023-02-28T12:47:00;8.43;;;4.10;;
24145;SDS011;12308;50.948;4.706;2023-02-28T12:52:12;5.40;;;3.80;;
24145;SDS011;12308;50.948;4.706;2023-02-28T12:54:56;10.70;;;4.50;;
24145;SDS011;12308;50.948;4.706;2023-02-28T12:57:41;6.78;;;4.22;;
24145;SDS011;12308;50.948;4.706;2023-02-28T13:00:36;8.48;;;4.32;;
24145;SDS011;12308;50.948;4.706;2023-02-28T13:03:21;19.98;;;4.43;;
24145;SDS011;12308;50.948;4.706;2023-02-28T13:11:34;5.75;;;4.05;;
24145;SDS011;12308;50.948;4.706;2023-02-28T13:14:06;9.95;;;4.70;;
24145;SDS011;12308;50.948;4.706;2023-02-28T13:16:51;8.40;;;4.65;;
24145;SDS011;12308;50.948;4.706;2023-02-28T13:19:18;6.90;;;4.50;;
24145;SDS011;12308;50.948;4.706;2023-02-28T13:21:48;7.47;;;4.60;;
24145;SDS011;12308;50.948;4.706;2023-02-28T13:29:31;6.47;;;4.32;;
24145;SDS011;12308;50.948;4.706;2023-02-28T13:39:50;9.57;;;5.15;;
24145;SDS011;12308;50.948;4.706;2023-02-28T13:45:19;8.27;;;4.70;;
24145;SDS011;12308;50.948;4.706;2023-02-28T13:47:48;13.68;;;5.18;;
24145;SDS011;12308;50.948;4.706;2023-02-28T14:09:30;8.30;;;5.20;;
24145;SDS011;12308;50.948;4.706;2023-02-28T14:11:37;7.93;;;5.05;;
24145;SDS011;12308;50.948;4.706;2023-02-28T14:14:04;8.45;;;5.07;;
24145;SDS011;12308;50.948;4.706;2023-02-28T14:16:44;10.60;;;6.25;;
24145;SDS011;12308;50.948;4.706;2023-02-28T14:19:12;7.55;;;5.40;;
24145;SDS011;12308;50.948;4.706;2023-02-28T14:30:15;7.95;;;4.95;;
24145;SDS011;12308;50.948;4.706;2023-02-28T14:33:00;9.38;;;6.03;;
24145;SDS011;12308;50.948;4.706;2023-02-28T14:38:12;12.38;;;5.90;;
24145;SDS011;12308;50.948;4.706;2023-02-28T14:40:43;9.07;;;5.97;;
24145;SDS011;12308;50.948;4.706;2023-02-28T14:43:24;11.65;;;6.43;;
24145;SDS011;12308;50.948;4.706;2023-02-28T14:45:53;10.60;;;5.53;;
24145;SDS011;12308;50.948;4.706;2023-02-28T14:48:22;6.17;;;4.73;;
24145;SDS011;12308;50.948;4.706;2023-02-28T14:50:50;7.40;;;5.03;;
24145;SDS011;12308;50.948;4.706;2023-02-28T14:53:18;8.25;;;5.43;;
24145;SDS011;12308;50.948;4.706;2023-02-28T14:55:47;9.05;;;5.30;;
24145;SDS011;12308;50.948;4.706;2023-02-28T14:58:27;10.40;;;5.60;;
24145;SDS011;12308;50.948;4.706;2023-02-28T15:01:02;7.45;;;4.90;;
24145;SDS011;12308;50.948;4.706;2023-02-28T15:03:37;8.75;;;5.63;;
24145;SDS011;12308;50.948;4.706;2023-02-28T15:08:31;7.70;;;5.10;;
24145;SDS011;12308;50.948;4.706;2023-02-28T15:11:01;10.55;;;5.10;;
24145;SDS011;12308;50.948;4.706;2023-02-28T15:13:39;8.00;;;5.05;;
24145;SDS011;12308;50.948;4.706;2023-02-28T15:21:15;9.48;;;4.88;;
24145;SDS011;12308;50.948;4.706;2023-02-28T15:23:44;7.65;;;5.22;;
24145;SDS011;12308;50.948;4.706;2023-02-28T15:26:20;10.38;;;5.60;;
24145;SDS011;12308;50.948;4.706;2023-02-28T15:28:51;9.05;;;5.20;;
24145;SDS011;12308;50.948;4.706;2023-02-28T15:31:26;14.20;;;5.57;;
24145;SDS011;12308;50.948;4.706;2023-02-28T15:33:54;11.90;;;5.15;;
24145;SDS011;12308;50.948;4.706;2023-02-28T15:36:23;22.75;;;6.30;;
24145;SDS011;12308;50.948;4.706;2023-02-28T15:38:53;10.02;;;5.72;;
24145;SDS011;12308;50.948;4.706;2023-02-28T15:41:24;11.38;;;5.90;;
24145;SDS011;12308;50.948;4.706;2023-02-28T15:44:37;8.70;;;5.90;;
24145;SDS011;12308;50.948;4.706;2023-02-28T15:50:06;9.48;;;6.00;;
24145;SDS011;12308;50.948;4.706;2023-02-28T15:54:56;36.88;;;6.43;;
24145;SDS011;12308;50.948;4.706;2023-02-28T15:57:24;12.77;;;5.53;;
24145;SDS011;12308;50.948;4.706;2023-02-28T15:59:52;8.63;;;5.25;;
24145;SDS011;12308;50.948;4.706;2023-02-28T16:02:31;8.85;;;5.15;;
24145;SDS011;12308;50.948;4.706;2023-02-28T16:07:25;12.60;;;5.88;;
24145;SDS011;12308;50.948;4.706;2023-02-28T16:09:51;11.55;;;5.40;;
24145;SDS011;12308;50.948;4.706;2023-02-28T16:12:17;8.20;;;5.50;;
24145;SDS011;12308;50.948;4.706;2023-02-28T16:14:45;17.73;;;5.45;;
24145;SDS011;12308;50.948;4.706;2023-02-28T16:17:22;9.85;;;5.30;;
24145;SDS011;12308;50.948;4.706;2023-02-28T16:19:53;9.32;;;4.85;;
24145;SDS011;12308;50.948;4.706;2023-02-28T16:22:19;9.50;;;5.25;;
24145;SDS011;12308;50.948;4.706;2023-02-28T16:24:46;8.13;;;5.20;;
24145;SDS011;12308;50.948;4.706;2023-02-28T16:27:15;11.40;;;5.55;;
24145;SDS011;12308;50.948;4.706;2023-02-28T16:29:41;7.30;;;4.53;;
24145;SDS011;12308;50.948;4.706;2023-02-28T16:32:07;12.43;;;4.90;;
24145;SDS011;12308;50.948;4.706;2023-02-28T16:34:35;9.45;;;5.22;;
24145;SDS011;12308;50.948;4.706;2023-02-28T16:37:01;8.95;;;5.55;;
24145;SDS011;12308;50.948;4.706;2023-02-28T16:39:26;15.88;;;5.28;;
24145;SDS011;12308;50.948;4.706;2023-02-28T16:41:52;10.90;;;5.18;;
24145;SDS011;12308;50.948;4.706;2023-02-28T16:44:28;10.68;;;5.80;;
24145;SDS011;12308;50.948;4.706;2023-02-28T16:46:56;16.40;;;5.90;;
24145;SDS011;12308;50.948;4.706;2023-02-28T16:49:25;9.38;;;5.38;;
24145;SDS011;12308;50.948;4.706;2023-02-28T16:51:50;13.88;;;6.20;;
24145;SDS011;12308;50.948;4.706;2023-02-28T16:54:16;8.40;;;5.32;;
24145;SDS011;12308;50.948;4.706;2023-02-28T16:56:46;9.40;;;5.35;;
24145;SDS011;12308;50.948;4.706;2023-02-28T16:59:13;11.52;;;5.30;;
24145;SDS011;12308;50.948;4.706;2023-02-28T17:01:46;12.93;;;5.30;;
24145;SDS011;12308;50.948;4.706;2023-02-28T17:04:12;13.07;;;6.30;;
24145;SDS011;12308;50.948;4.706;2023-02-28T17:06:39;10.60;;;6.80;;
24145;SDS011;12308;50.948;4.706;2023-02-28T17:09:05;13.65;;;7.63;;
24145;SDS011;12308;50.948;4.706;2023-02-28T17:11:33;13.90;;;6.78;;
24145;SDS011;12308;50.948;4.706;2023-02-28T17:13:59;8.95;;;6.28;;
24145;SDS011;12308;50.948;4.706;2023-02-28T17:18:59;11.00;;;6.05;;
24145;SDS011;12308;50.948;4.706;2023-02-28T17:21:26;9.13;;;6.07;;
24145;SDS011;12308;50.948;4.706;2023-02-28T17:23:52;11.25;;;6.00;;
24145;SDS011;12308;50.948;4.706;2023-02-28T17:26:19;12.10;;;5.93;;
24145;SDS011;12308;50.948;4.706;2023-02-28T17:28:46;11.20;;;5.65;;
24145;SDS011;12308;50.948;4.706;2023-02-28T17:31:13;12.57;;;7.05;;
24145;SDS011;12308;50.948;4.706;2023-02-28T17:33:39;21.55;;;7.35;;
24145;SDS011;12308;50.948;4.706;2023-02-28T17:36:05;16.95;;;7.43;;
24145;SDS011;12308;50.948;4.706;2023-02-28T17:38:32;21.90;;;7.28;;
24145;SDS011;12308;50.948;4.706;2023-02-28T17:40:57;18.92;;;7.93;;
24145;SDS011;12308;50.948;4.706;2023-02-28T17:43:26;17.58;;;8.00;;
24145;SDS011;12308;50.948;4.706;2023-02-28T17:45:53;20.90;;;8.77;;
24145;SDS011;12308;50.948;4.706;2023-02-28T17:48:18;20.92;;;7.82;;
24145;SDS011;12308;50.948;4.706;2023-02-28T17:50:45;16.23;;;7.78;;